Farnham, New York
Current Conditions -  °F | °C
As of 1:53 AM on Sunday 26 Oct 2014 (Local Time) from KDKK Reporting Station
Broken Clouds Broken Clouds  
Wind Chill: 53°   Ceiling: 6000
Heat Index: 53°   Visibility: 10mi
Dew Point: 41°   Wind: 14mph
Humidity: 64%   Direction: 320°NW
Pressure: 29.72"   Gusts: 26mph
Location:  42.59°N, 79.09°W
Report Text: KDKK 260553Z AUTO 32012G23KT 10SM FEW034 SCT043 BKN060 12/05 A2972 RMK AO2 SLP063 60000 T01170050 10150 20117 52008
Loading
Personal Weather Stations






























Interactive Weather Map
Tropical Storm Tracking
New forecast layout! Learn more

10-Day Weather Forecast

Advertisements
Track Severe Weather on mobile